Latest Coastal Weather Observations for Norah Head

IDN60701

Issued at 3:41 pm EDT Saturday 13 February 2016 (issued every 10 minutes, with the page automatically refreshed every 10 minutes)

About coastal observations | Map of coastal stations | Coastal observations for NSW | Marine services | Other Formats
Station Details ID: 061366 Name: NORAH HEAD AWS Lat: -33.28 Lon: 151.58 Height: 18.8 m
Data from the previous 72 hours. | See also: Recent months at Norah Head
Date/Time
EDT
Temp

°C
Wind Pressure Rain
since 9am
mm
Weather Cloud Vis
km
Sea
Height
m
Swell
Dir
 
Speed
knots
Gust
knots
hPa Trend Height
m
Period
s
Dir
13/03:30pm 28.6 NE 12 15 1011.7 - 0.0 - - - - - - -
13/03:00pm 28.8 ENE 13 15 1012.0 - 0.0 - - - - - - -
13/02:30pm 29.0 ENE 13 14 1012.3 - 0.0 - - - - - - -
13/02:00pm 29.2 NE 11 13 1012.7 - 0.0 - - - - - - -
13/01:30pm 28.6 NE 12 14 1012.9 - 0.0 - - - - - - -
13/01:00pm 28.0 NE 12 14 1013.2 - 0.0 - - - - - - -
13/12:30pm 26.9 NE 13 14 1013.6 - 0.0 - - - - - - -
13/12:00pm 27.3 NE 12 14 1013.9 - 0.0 - - - - - - -
13/11:30am 26.5 NE 12 13 1014.3 - 0.0 - - - - - - -
13/11:00am 26.5 NE 12 13 1014.3 - 0.0 - - - - - - -
13/10:30am 26.1 NNE 11 13 1014.5 - 0.0 - - - - - - -
13/10:00am 25.5 NNE 10 11 1014.5 - 0.0 - - - - - - -
13/09:30am 25.1 NNE 10 12 1014.5 - 0.0 - - - - - - -
13/09:00am 25.2 N 7 9 1014.7 - 0.0 - - - - - - -
13/08:30am 24.4 N 8 9 1014.6 - 0.0 - - - - - - -
13/08:00am 23.3 NNW 5 7 1014.6 - 0.0 - - - - - - -
13/07:30am 22.6 NNW 3 5 1014.4 - 0.0 - - - - - - -
13/07:00am 21.7 NNW 4 5 1014.4 - 0.0 - - - - - - -
13/06:30am 21.1 NNW 4 5 1014.2 - 0.0 - - - - - - -
13/06:00am 21.1 WNW 3 5 1014.0 - 0.0 - - - - - - -
13/05:30am 21.3 WNW 4 5 1013.9 - 0.0 - - - - - - -
13/05:00am 21.5 NW 3 5 1013.6 - 0.0 - - - - - - -
13/04:30am 22.2 NNW 7 10 1013.6 - 0.0 - - - - - - -
13/04:00am 22.2 N 8 10 1013.5 - 0.0 - - - - - - -
13/03:30am 22.4 N 9 10 1013.6 - 0.0 - - - - - - -
13/03:00am 22.9 N 10 12 1014.0 - 0.0 - - - - - - -
13/02:30am 23.3 NNE 13 14 1014.1 - 0.0 - - - - - - -
13/02:00am 23.2 NNE 12 14 1014.3 - 0.0 - - - - - - -
13/01:30am 23.1 NNE 14 15 1014.5 - 0.0 - - - - - - -
13/01:00am 23.2 NE 13 16 1014.8 - 0.0 - - - - - - -
13/12:30am 23.1 NE 13 15 1015.1 - 0.0 - - - - - - -
13/12:00am 23.4 NE 13 16 1015.2 - 0.0 - - - - - - -
 
Date/Time
EDT
Temp

°C
Wind Pressure Rain
since 9am
mm
Weather Cloud Vis
km
Sea
Height
m
Swell
Dir
 
Speed
knots
Gust
knots
hPa Trend Height
m
Period
s
Dir
12/11:30pm 23.5 NE 13 16 1015.3 - 0.0 - - - - - - -
12/11:00pm 23.6 NE 14 17 1015.4 - 0.0 - - - - - - -
12/10:30pm 23.4 NE 15 17 1015.4 - 0.0 - - - - - - -
12/10:00pm 23.7 NE 15 18 1015.5 - 0.0 - - - - - - -
12/09:30pm 23.7 NE 15 17 1015.5 - 0.0 - - - - - - -
12/09:00pm 23.8 NE 15 18 1015.4 - 0.0 - - - - - - -
12/08:30pm 23.9 NE 12 15 1015.2 - 0.0 - - - - - - -
12/08:00pm 23.9 ENE 10 12 1014.9 - 0.0 - - - - - - -
12/07:30pm 24.2 ENE 11 12 1014.8 - 0.0 - - - - - - -
12/07:00pm 25.1 ENE 10 12 1014.5 - 0.0 - - - - - - -
12/06:30pm 25.8 ENE 11 13 1014.3 - 0.0 - - - - - - -
12/06:00pm 25.6 E 9 11 1014.3 - 0.0 - - - - - - -
12/05:30pm 25.8 E 10 11 1014.3 - 0.0 - - - - - - -
12/05:00pm 26.2 E 10 12 1014.2 - 0.0 - - - - - - -
12/04:30pm 26.3 ESE 9 11 1014.4 - 0.0 - - - - - - -
12/04:00pm 26.6 ESE 7 9 1014.6 - 0.0 - - - - - - -
12/03:30pm 26.8 ESE 8 9 1014.8 - 0.0 - - - - - - -
12/03:00pm 26.8 E 7 8 1015.0 - 0.0 - - - - - - -
12/02:30pm 27.0 E 6 8 1015.2 - 0.0 - - - - - - -
12/02:00pm 27.2 E 5 6 1015.5 - 0.0 - - - - - - -
12/01:30pm 28.9 ENE 5 7 1015.8 - 0.0 - - - - - - -
12/01:00pm 27.1 ENE 5 6 1016.0 - 0.0 - - - - - - -
12/12:30pm 27.2 ENE 4 5 1016.4 - 0.0 - - - - - - -
12/12:00pm 28.0 ENE 4 5 1016.6 - 0.0 - - - - - - -
12/11:30am 27.0 E 3 5 1016.8 - 0.0 - - - - - - -
12/11:00am 26.3 E 3 4 1016.9 - 0.0 - - - - - - -
12/10:30am 26.7 E 3 5 1017.0 - 0.0 - - - - - - -
12/10:00am 27.2 ENE 3 4 1017.0 - 0.0 - - - - - - -
12/09:30am 25.3 NE 1 2 1016.9 - 0.0 - - - - - - -
12/09:00am 24.6 N 1 2 1016.7 - 0.0 - - - - - - -
12/08:30am 24.1 NNW 1 2 1016.5 - 0.0 - - - - - - -
12/08:00am 23.3 NW 1 2 1016.3 - 0.0 - - - - - - -
12/07:30am 22.9 WNW 2 3 1015.9 - 0.0 - - - - - - -
12/07:00am 22.3 NNE 8 9 1015.4 - 0.0 - - - - - - -
12/06:30am 21.6 NNE 6 7 1015.4 - 0.0 - - - - - - -
12/06:00am 21.7 NNE 4 5 1015.0 - 0.0 - - - - - - -
12/05:30am 21.7 NNE 4 5 1014.7 - 0.0 - - - - - - -
12/05:00am 21.8 N 2 3 1014.6 - 0.0 - - - - - - -
12/04:30am 21.8 NW 2 3 1014.6 - 0.0 - - - - - - -
12/04:00am 22.2 N 6 7 1014.7 - 0.0 - - - - - - -
12/03:30am 22.6 N 5 7 1014.7 - 0.0 - - - - - - -
12/03:00am 22.8 N 6 8 1014.8 - 0.0 - - - - - - -
12/02:30am 23.1 NNE 11 12 1014.8 - 0.0 - - - - - - -
12/02:00am 23.2 NE 12 15 1014.6 - 0.0 - - - - - - -
12/01:30am 23.0 NNE 9 11 1014.8 - 0.0 - - - - - - -
12/01:00am 23.2 NNE 10 12 1015.5 - 0.0 - - - - - - -
12/12:30am 23.4 NE 10 12 1015.4 - 0.0 - - - - - - -
12/12:00am 23.5 NE 11 12 1015.3 - 0.0 - - - - - - -
 
Date/Time
EDT
Temp

°C
Wind Pressure Rain
since 9am
mm
Weather Cloud Vis
km
Sea
Height
m
Swell
Dir
 
Speed
knots
Gust
knots
hPa Trend Height
m
Period
s
Dir
11/11:30pm 23.6 NE 9 11 1015.7 - 0.0 - - - - - - -
11/11:00pm 23.8 NE 10 11 1015.7 - 0.0 - - - - - - -
11/10:30pm 23.8 NE 10 12 1016.2 - 0.0 - - - - - - -
11/10:00pm 23.9 NE 13 15 1015.8 - 0.0 - - - - - - -
11/09:30pm 23.8 ENE 11 13 1015.4 - 0.0 - - - - - - -
11/09:00pm 24.0 ENE 8 9 1015.3 - 0.0 - - - - - - -
11/08:30pm 24.4 ENE 8 9 1015.1 - 0.0 - - - - - - -
11/08:00pm 24.5 ENE 7 9 1014.9 - 0.0 - - - - - - -
11/07:30pm 24.7 E 8 10 1014.5 - 0.0 - - - - - - -
11/07:00pm 24.7 E 9 10 1014.1 - 0.0 - - - - - - -
11/06:30pm 24.9 E 11 12 1013.5 - 0.0 - - - - - - -
11/06:00pm 25.3 E 11 13 1013.4 - 0.0 - - - - - - -
11/05:30pm 25.6 ESE 9 11 1013.4 - 0.0 - - - - - - -
11/05:00pm 25.3 E 9 11 1013.4 - 0.0 - - - - - - -
11/04:30pm 25.9 E 9 11 1013.4 - 0.0 - - - - - - -
11/04:00pm 25.9 E 9 11 1013.7 - 0.0 - - - - - - -
11/03:30pm 26.2 E 9 11 1013.9 - 0.0 - - - - - - -
11/03:00pm 26.3 E 10 11 1014.1 - 0.0 - - - - - - -
11/02:30pm 26.4 E 9 11 1014.5 - 0.0 - - - - - - -
11/02:00pm 26.7 E 8 10 1014.6 - 0.0 - - - - - - -
11/01:30pm 26.9 E 6 7 1014.8 - 0.0 - - - - - - -
11/01:00pm 26.8 ESE 7 9 1015.0 - 0.0 - - - - - - -
11/12:30pm 27.0 SE 8 9 1015.2 - 0.0 - - - - - - -
11/12:00pm 26.9 SE 7 8 1015.2 - 0.0 - - - - - - -
11/11:30am 27.1 SSE 7 8 1015.4 - 0.0 - - - - - - -
11/11:00am 26.3 SSE 5 7 1015.5 - 0.0 - - - - - - -
11/10:30am 25.6 SE 3 5 1015.5 - 0.0 - - - - - - -
11/10:00am 25.1 SSE 3 4 1015.4 - 0.0 - - - - - - -
11/09:30am 24.4 S 3 5 1015.4 - 0.0 - - - - - - -
11/09:00am 24.5 ESE 1 3 1015.2 - 0.0 - - - - - - -
11/08:30am 23.2 CALM 0 2 1015.0 - 0.0 - - - - - - -
11/08:00am 22.2 NNW 3 4 1014.6 - 0.0 - - - - - - -
11/07:30am 21.3 CALM 0 2 1014.4 - 0.0 - - - - - - -
11/07:00am 20.3 W 3 4 1014.0 - 0.0 - - - - - - -
11/06:30am 20.3 WNW 3 4 1013.6 - 0.0 - - - - - - -
11/06:00am 20.4 NW 4 5 1013.3 - 0.0 - - - - - - -
11/05:30am 21.1 NW 5 7 1013.1 - 0.0 - - - - - - -
11/05:00am 22.1 NNE 13 15 1012.8 - 0.0 - - - - - - -
11/04:30am 22.2 NNE 14 17 1012.7 - 0.0 - - - - - - -
11/04:00am 22.3 NNE 15 17 1012.5 - 0.0 - - - - - - -
11/03:30am 22.3 NE 14 16 1012.7 - 0.0 - - - - - - -
11/03:00am 22.4 NE 15 17 1012.8 - 0.0 - - - - - - -
11/02:30am 22.5 NNE 15 17 1012.9 - 0.0 - - - - - - -
11/02:00am 22.6 NNE 14 16 1013.1 - 0.0 - - - - - - -
11/01:30am 22.6 NE 14 17 1013.3 - 0.0 - - - - - - -
11/01:00am 22.8 NNE 14 17 1013.6 - 0.0 - - - - - - -
11/12:30am 22.7 NNE 15 18 1013.7 - 0.0 - - - - - - -
11/12:00am 23.0 NNE 16 18 1013.7 - 0.0 - - - - - - -
 
Date/Time
EDT
Temp

°C
Wind Pressure Rain
since 9am
mm
Weather Cloud Vis
km
Sea
Height
m
Swell
Dir
 
Speed
knots
Gust
knots
hPa Trend Height
m
Period
s
Dir
10/11:30pm 23.1 NNE 16 18 1013.7 - 0.0 - - - - - - -
10/11:00pm 23.3 NNE 17 19 1013.8 - 0.0 - - - - - - -
10/10:30pm 23.3 NNE 16 18 1014.0 - 0.0 - - - - - - -
10/10:00pm 23.2 NNE 17 20 1014.1 - 0.0 - - - - - - -
10/09:30pm 23.3 NE 18 20 1014.0 - 0.0 - - - - - - -
10/09:00pm 23.3 NNE 18 20 1013.6 - 0.0 - - - - - - -
10/08:30pm 23.3 NE 18 21 1013.5 - 0.0 - - - - - - -
10/08:00pm 23.3 NE 17 20 1013.3 - 0.0 - - - - - - -
10/07:30pm 23.4 NE 17 20 1013.0 - 0.0 - - - - - - -
10/07:00pm 23.9 NE 18 20 1012.8 - 0.0 - - - - - - -
10/06:30pm 24.1 NE 17 20 1012.5 - 0.0 - - - - - - -
10/06:00pm 24.3 NE 17 19 1012.6 - 0.0 - - - - - - -
10/05:30pm 24.6 NE 17 19 1012.5 - 0.0 - - - - - - -
10/05:00pm 24.7 NE 17 19 1012.5 - 0.0 - - - - - - -
10/04:30pm 25.4 NE 17 19 1012.7 - 0.0 - - - - - - -
10/04:00pm 25.8 NE 16 18 1012.8 - 0.0 - - - - - - -

Other Formats:

Comma delimited format used in spreadsheet applications
http://www.bom.gov.au/fwo/IDN60701/IDN60701.95770.axf

JavaScript Object Notation format (JSON) in row-major order
http://www.bom.gov.au/fwo/IDN60701/IDN60701.95770.json